VLVT/VTE METAR and TAF weather

Enter ICAO airport designator
Station Type Date Time Source
VLVT METAR 2020/09/20 08:00 UTC NOAA

VLVT 200800Z 14008KT 8000 SCT016 SCT040 BKN083 28/25 Q1007 NOSIG


Station Type Date Time Source
VLVT Decoded METAR 2020/09/20 08:00 UTC NOAA

Vientiane, Laos (VLVT) 17-57N 102-34E 171M
Sep 20, 2020 - 04:00 AM EDT / 2020.09.20 0800 UTC
Wind: from the SE (140 degrees) at 9 MPH (8 KT):0
Visibility: 4 mile(s):0
Sky conditions: mostly cloudy
Temperature: 82 F (28 C)
Dew Point: 77 F (25 C)
Relative Humidity: 83%
Pressure (altimeter): 29.74 in. Hg (1007 hPa)
ob: VLVT 200800Z 14008KT 8000 SCT016 SCT040 BKN083 28/25 Q1007 NOSIG
cycle: 8

Station Type Date Time Source
VLVT TAF 2020/09/20 06:36 UTC NOAA

TAF TAF VLVT 200500Z 2006/2106 14006KT 8000 SCT016 BKN040 SCT083

Example: see airport list